sensor_id;sensor_type;location;lat;lon;timestamp;P1;durP1;ratioP1;P2;durP2;ratioP2
84050;SDS011;74137;50.136;19.040;2024-03-23T00:55:58;20.30;;;13.00;;
84050;SDS011;74137;50.136;19.040;2024-03-23T00:58:25;21.90;;;13.90;;
84050;SDS011;74137;50.136;19.040;2024-03-23T01:00:52;22.40;;;13.00;;
84050;SDS011;74137;50.136;19.040;2024-03-23T01:03:19;21.20;;;13.40;;
84050;SDS011;74137;50.136;19.040;2024-03-23T01:05:46;20.40;;;12.90;;
84050;SDS011;74137;50.136;19.040;2024-03-23T01:08:13;17.00;;;12.10;;
84050;SDS011;74137;50.136;19.040;2024-03-23T01:10:40;15.80;;;10.60;;
84050;SDS011;74137;50.136;19.040;2024-03-23T01:13:07;19.40;;;11.10;;
84050;SDS011;74137;50.136;19.040;2024-03-23T01:15:34;17.70;;;11.50;;
84050;SDS011;74137;50.136;19.040;2024-03-23T01:18:01;17.70;;;10.80;;
84050;SDS011;74137;50.136;19.040;2024-03-23T01:20:28;18.00;;;10.90;;
84050;SDS011;74137;50.136;19.040;2024-03-23T01:22:55;16.60;;;10.40;;
84050;SDS011;74137;50.136;19.040;2024-03-23T01:25:24;17.20;;;10.30;;
84050;SDS011;74137;50.136;19.040;2024-03-23T01:27:51;18.50;;;11.10;;
84050;SDS011;74137;50.136;19.040;2024-03-23T01:30:17;18.20;;;11.60;;
84050;SDS011;74137;50.136;19.040;2024-03-23T01:32:44;20.10;;;11.90;;
84050;SDS011;74137;50.136;19.040;2024-03-23T01:35:14;20.00;;;11.60;;
84050;SDS011;74137;50.136;19.040;2024-03-23T01:37:40;19.40;;;12.00;;
84050;SDS011;74137;50.136;19.040;2024-03-23T01:40:10;17.20;;;11.50;;
84050;SDS011;74137;50.136;19.040;2024-03-23T01:42:39;18.70;;;11.40;;
84050;SDS011;74137;50.136;19.040;2024-03-23T01:45:07;20.30;;;11.90;;
84050;SDS011;74137;50.136;19.040;2024-03-23T01:47:35;19.10;;;12.40;;
84050;SDS011;74137;50.136;19.040;2024-03-23T01:50:02;19.70;;;12.30;;
84050;SDS011;74137;50.136;19.040;2024-03-23T01:52:29;21.10;;;12.30;;
84050;SDS011;74137;50.136;19.040;2024-03-23T01:54:57;18.20;;;11.70;;
84050;SDS011;74137;50.136;19.040;2024-03-23T01:57:24;18.00;;;11.30;;
84050;SDS011;74137;50.136;19.040;2024-03-23T01:59:51;18.00;;;12.10;;
84050;SDS011;74137;50.136;19.040;2024-03-23T02:02:22;18.00;;;11.80;;
84050;SDS011;74137;50.136;19.040;2024-03-23T02:04:49;19.10;;;11.90;;
84050;SDS011;74137;50.136;19.040;2024-03-23T02:07:16;18.50;;;11.50;;
84050;SDS011;74137;50.136;19.040;2024-03-23T02:09:43;22.10;;;12.10;;
84050;SDS011;74137;50.136;19.040;2024-03-23T02:12:10;19.80;;;12.40;;
84050;SDS011;74137;50.136;19.040;2024-03-23T02:14:37;17.80;;;12.00;;
84050;SDS011;74137;50.136;19.040;2024-03-23T02:17:04;19.80;;;12.50;;
84050;SDS011;74137;50.136;19.040;2024-03-23T02:19:31;18.30;;;11.20;;
84050;SDS011;74137;50.136;19.040;2024-03-23T02:21:58;19.40;;;11.60;;
84050;SDS011;74137;50.136;19.040;2024-03-23T02:24:25;19.90;;;11.80;;
84050;SDS011;74137;50.136;19.040;2024-03-23T02:26:53;18.20;;;11.00;;
84050;SDS011;74137;50.136;19.040;2024-03-23T02:29:20;17.70;;;12.00;;
84050;SDS011;74137;50.136;19.040;2024-03-23T02:31:47;19.40;;;11.50;;
84050;SDS011;74137;50.136;19.040;2024-03-23T02:34:14;22.70;;;11.90;;
84050;SDS011;74137;50.136;19.040;2024-03-23T02:36:40;18.00;;;12.40;;
84050;SDS011;74137;50.136;19.040;2024-03-23T02:39:07;21.10;;;13.20;;
84050;SDS011;74137;50.136;19.040;2024-03-23T02:41:34;19.90;;;12.20;;
84050;SDS011;74137;50.136;19.040;2024-03-23T02:44:01;19.80;;;12.20;;
84050;SDS011;74137;50.136;19.040;2024-03-23T02:46:28;18.70;;;11.20;;
84050;SDS011;74137;50.136;19.040;2024-03-23T02:48:55;21.80;;;13.20;;
84050;SDS011;74137;50.136;19.040;2024-03-23T02:51:23;21.00;;;11.50;;
84050;SDS011;74137;50.136;19.040;2024-03-23T02:53:50;19.30;;;12.40;;
84050;SDS011;74137;50.136;19.040;2024-03-23T02:56:17;17.50;;;11.10;;
84050;SDS011;74137;50.136;19.040;2024-03-23T02:58:44;19.00;;;10.40;;
84050;SDS011;74137;50.136;19.040;2024-03-23T03:01:11;20.50;;;11.40;;
84050;SDS011;74137;50.136;19.040;2024-03-23T03:03:38;17.80;;;11.40;;
84050;SDS011;74137;50.136;19.040;2024-03-23T03:06:05;18.50;;;11.60;;
84050;SDS011;74137;50.136;19.040;2024-03-23T03:08:32;21.50;;;12.70;;
84050;SDS011;74137;50.136;19.040;2024-03-23T03:10:59;21.70;;;13.70;;
84050;SDS011;74137;50.136;19.040;2024-03-23T03:13:28;21.40;;;12.20;;
84050;SDS011;74137;50.136;19.040;2024-03-23T03:15:55;18.80;;;11.70;;
84050;SDS011;74137;50.136;19.040;2024-03-23T03:18:22;23.70;;;13.90;;
84050;SDS011;74137;50.136;19.040;2024-03-23T03:20:49;17.50;;;11.20;;
84050;SDS011;74137;50.136;19.040;2024-03-23T03:23:16;23.00;;;14.50;;
84050;SDS011;74137;50.136;19.040;2024-03-23T03:25:44;20.50;;;12.80;;
84050;SDS011;74137;50.136;19.040;2024-03-23T03:28:11;22.30;;;13.30;;
84050;SDS011;74137;50.136;19.040;2024-03-23T03:30:38;22.10;;;13.50;;
84050;SDS011;74137;50.136;19.040;2024-03-23T03:33:05;24.30;;;13.40;;
84050;SDS011;74137;50.136;19.040;2024-03-23T03:35:31;21.70;;;13.90;;
84050;SDS011;74137;50.136;19.040;2024-03-23T03:37:58;21.40;;;13.50;;
84050;SDS011;74137;50.136;19.040;2024-03-23T03:40:25;20.40;;;13.20;;
84050;SDS011;74137;50.136;19.040;2024-03-23T03:42:52;25.10;;;13.90;;
84050;SDS011;74137;50.136;19.040;2024-03-23T03:45:19;22.40;;;13.80;;
84050;SDS011;74137;50.136;19.040;2024-03-23T03:47:46;21.70;;;13.30;;
84050;SDS011;74137;50.136;19.040;2024-03-23T03:50:13;24.70;;;16.70;;
84050;SDS011;74137;50.136;19.040;2024-03-23T03:52:40;22.20;;;13.60;;
84050;SDS011;74137;50.136;19.040;2024-03-23T03:55:12;21.30;;;15.20;;
84050;SDS011;74137;50.136;19.040;2024-03-23T03:57:40;24.00;;;14.90;;
84050;SDS011;74137;50.136;19.040;2024-03-23T04:00:07;24.50;;;17.40;;
84050;SDS011;74137;50.136;19.040;2024-03-23T04:02:38;22.30;;;15.30;;
84050;SDS011;74137;50.136;19.040;2024-03-23T04:05:05;23.40;;;15.80;;
84050;SDS011;74137;50.136;19.040;2024-03-23T04:07:32;17.70;;;12.10;;
84050;SDS011;74137;50.136;19.040;2024-03-23T04:09:59;20.20;;;11.80;;
84050;SDS011;74137;50.136;19.040;2024-03-23T04:12:26;21.90;;;12.70;;
84050;SDS011;74137;50.136;19.040;2024-03-23T04:14:53;19.50;;;12.60;;
84050;SDS011;74137;50.136;19.040;2024-03-23T04:17:20;19.10;;;11.90;;
84050;SDS011;74137;50.136;19.040;2024-03-23T04:19:47;19.40;;;12.50;;
84050;SDS011;74137;50.136;19.040;2024-03-23T04:22:15;18.10;;;12.70;;
84050;SDS011;74137;50.136;19.040;2024-03-23T04:24:43;15.30;;;10.40;;
84050;SDS011;74137;50.136;19.040;2024-03-23T04:27:10;14.90;;;9.70;;
84050;SDS011;74137;50.136;19.040;2024-03-23T04:29:37;17.50;;;10.00;;
84050;SDS011;74137;50.136;19.040;2024-03-23T04:32:04;18.70;;;10.90;;
84050;SDS011;74137;50.136;19.040;2024-03-23T04:34:31;23.60;;;12.30;;
84050;SDS011;74137;50.136;19.040;2024-03-23T04:36:59;18.00;;;12.50;;
84050;SDS011;74137;50.136;19.040;2024-03-23T04:39:26;22.10;;;12.00;;
84050;SDS011;74137;50.136;19.040;2024-03-23T04:41:53;19.20;;;12.00;;
84050;SDS011;74137;50.136;19.040;2024-03-23T04:44:20;19.90;;;12.30;;
84050;SDS011;74137;50.136;19.040;2024-03-23T04:46:47;20.70;;;12.70;;
84050;SDS011;74137;50.136;19.040;2024-03-23T04:49:14;18.70;;;11.00;;
84050;SDS011;74137;50.136;19.040;2024-03-23T04:51:43;21.20;;;12.30;;
84050;SDS011;74137;50.136;19.040;2024-03-23T04:54:15;21.70;;;11.70;;
84050;SDS011;74137;50.136;19.040;2024-03-23T04:56:42;18.80;;;11.30;;
84050;SDS011;74137;50.136;19.040;2024-03-23T04:59:09;16.30;;;10.70;;
84050;SDS011;74137;50.136;19.040;2024-03-23T05:01:36;16.50;;;11.50;;
84050;SDS011;74137;50.136;19.040;2024-03-23T05:04:08;17.20;;;10.80;;
84050;SDS011;74137;50.136;19.040;2024-03-23T05:06:35;21.10;;;12.50;;
84050;SDS011;74137;50.136;19.040;2024-03-23T05:09:02;22.80;;;12.90;;
84050;SDS011;74137;50.136;19.040;2024-03-23T05:11:32;20.80;;;12.50;;
84050;SDS011;74137;50.136;19.040;2024-03-23T05:14:00;19.50;;;13.80;;
84050;SDS011;74137;50.136;19.040;2024-03-23T05:16:27;21.50;;;13.50;;
84050;SDS011;74137;50.136;19.040;2024-03-23T05:18:54;18.70;;;13.30;;
84050;SDS011;74137;50.136;19.040;2024-03-23T05:21:21;18.70;;;12.50;;
84050;SDS011;74137;50.136;19.040;2024-03-23T05:23:48;21.50;;;12.90;;
84050;SDS011;74137;50.136;19.040;2024-03-23T05:26:15;21.10;;;13.20;;
84050;SDS011;74137;50.136;19.040;2024-03-23T05:28:42;19.80;;;12.70;;
84050;SDS011;74137;50.136;19.040;2024-03-23T05:31:09;21.60;;;12.40;;
84050;SDS011;74137;50.136;19.040;2024-03-23T05:33:36;21.10;;;12.60;;
84050;SDS011;74137;50.136;19.040;2024-03-23T05:36:05;18.70;;;12.20;;
84050;SDS011;74137;50.136;19.040;2024-03-23T05:38:35;21.50;;;12.90;;
84050;SDS011;74137;50.136;19.040;2024-03-23T05:41:02;17.70;;;12.00;;
84050;SDS011;74137;50.136;19.040;2024-03-23T05:43:29;19.90;;;11.20;;
84050;SDS011;74137;50.136;19.040;2024-03-23T05:45:57;18.30;;;11.70;;
84050;SDS011;74137;50.136;19.040;2024-03-23T05:48:25;19.60;;;12.60;;
84050;SDS011;74137;50.136;19.040;2024-03-23T05:50:53;17.60;;;11.90;;
84050;SDS011;74137;50.136;19.040;2024-03-23T05:53:20;18.20;;;11.50;;
84050;SDS011;74137;50.136;19.040;2024-03-23T05:55:47;18.60;;;12.40;;
84050;SDS011;74137;50.136;19.040;2024-03-23T05:58:15;20.20;;;12.70;;
84050;SDS011;74137;50.136;19.040;2024-03-23T06:00:42;21.70;;;12.80;;
84050;SDS011;74137;50.136;19.040;2024-03-23T06:03:10;16.90;;;11.70;;
84050;SDS011;74137;50.136;19.040;2024-03-23T06:05:38;20.40;;;13.60;;
84050;SDS011;74137;50.136;19.040;2024-03-23T06:13:27;22.40;;;13.60;;
84050;SDS011;74137;50.136;19.040;2024-03-23T06:25:47;25.50;;;20.10;;
84050;SDS011;74137;50.136;19.040;2024-03-23T06:29:16;28.00;;;19.70;;
84050;SDS011;74137;50.136;19.040;2024-03-23T06:33:02;26.00;;;20.30;;
84050;SDS011;74137;50.136;19.040;2024-03-23T06:41:11;21.20;;;15.30;;
84050;SDS011;74137;50.136;19.040;2024-03-23T06:48:58;24.60;;;19.40;;
84050;SDS011;74137;50.136;19.040;2024-03-23T08:39:50;18.70;;;9.50;;
84050;SDS011;74137;50.136;19.040;2024-03-23T08:50:29;10.50;;;6.50;;
84050;SDS011;74137;50.136;19.040;2024-03-23T08:53:56;9.20;;;5.70;;
84050;SDS011;74137;50.136;19.040;2024-03-23T08:57:22;9.10;;;5.00;;
84050;SDS011;74137;50.136;19.040;2024-03-23T09:01:27;7.60;;;4.60;;
84050;SDS011;74137;50.136;19.040;2024-03-23T09:04:44;8.00;;;4.90;;
84050;SDS011;74137;50.136;19.040;2024-03-23T09:07:12;9.60;;;5.50;;
84050;SDS011;74137;50.136;19.040;2024-03-23T09:09:40;8.60;;;5.20;;
84050;SDS011;74137;50.136;19.040;2024-03-23T09:12:08;9.50;;;5.10;;
84050;SDS011;74137;50.136;19.040;2024-03-23T09:14:36;9.70;;;5.70;;
84050;SDS011;74137;50.136;19.040;2024-03-23T09:17:05;9.20;;;5.20;;
84050;SDS011;74137;50.136;19.040;2024-03-23T09:19:33;7.70;;;5.20;;
84050;SDS011;74137;50.136;19.040;2024-03-23T09:22:02;10.20;;;5.90;;
84050;SDS011;74137;50.136;19.040;2024-03-23T09:24:30;10.60;;;5.60;;
84050;SDS011;74137;50.136;19.040;2024-03-23T09:26:59;10.40;;;5.60;;
84050;SDS011;74137;50.136;19.040;2024-03-23T09:29:28;8.40;;;5.30;;
84050;SDS011;74137;50.136;19.040;2024-03-23T09:31:56;8.40;;;5.00;;
84050;SDS011;74137;50.136;19.040;2024-03-23T09:34:24;8.10;;;4.20;;
84050;SDS011;74137;50.136;19.040;2024-03-23T09:36:52;9.40;;;5.10;;
84050;SDS011;74137;50.136;19.040;2024-03-23T09:39:24;9.30;;;5.60;;
84050;SDS011;74137;50.136;19.040;2024-03-23T09:41:56;10.50;;;4.70;;
84050;SDS011;74137;50.136;19.040;2024-03-23T09:44:25;8.00;;;4.60;;
84050;SDS011;74137;50.136;19.040;2024-03-23T09:49:22;8.80;;;4.80;;
84050;SDS011;74137;50.136;19.040;2024-03-23T09:51:51;8.20;;;4.90;;
84050;SDS011;74137;50.136;19.040;2024-03-23T09:54:19;9.60;;;5.20;;
84050;SDS011;74137;50.136;19.040;2024-03-23T09:56:50;9.20;;;5.50;;
84050;SDS011;74137;50.136;19.040;2024-03-23T09:59:18;11.60;;;5.20;;
84050;SDS011;74137;50.136;19.040;2024-03-23T10:01:46;8.40;;;4.30;;
84050;SDS011;74137;50.136;19.040;2024-03-23T10:07:17;9.50;;;4.90;;
84050;SDS011;74137;50.136;19.040;2024-03-23T10:09:46;10.30;;;4.90;;
84050;SDS011;74137;50.136;19.040;2024-03-23T10:12:16;7.60;;;4.20;;
84050;SDS011;74137;50.136;19.040;2024-03-23T10:14:46;8.10;;;4.90;;
84050;SDS011;74137;50.136;19.040;2024-03-23T10:17:21;9.90;;;5.10;;
84050;SDS011;74137;50.136;19.040;2024-03-23T10:19:53;9.00;;;4.70;;
84050;SDS011;74137;50.136;19.040;2024-03-23T10:22:25;8.90;;;5.10;;
84050;SDS011;74137;50.136;19.040;2024-03-23T10:24:53;7.90;;;5.40;;
84050;SDS011;74137;50.136;19.040;2024-03-23T10:27:35;8.30;;;4.80;;
84050;SDS011;74137;50.136;19.040;2024-03-23T10:30:07;9.20;;;4.80;;
84050;SDS011;74137;50.136;19.040;2024-03-23T10:32:40;8.80;;;5.40;;
84050;SDS011;74137;50.136;19.040;2024-03-23T10:37:42;11.40;;;5.30;;
84050;SDS011;74137;50.136;19.040;2024-03-23T10:40:11;8.80;;;5.40;;
84050;SDS011;74137;50.136;19.040;2024-03-23T10:42:40;8.90;;;4.90;;
84050;SDS011;74137;50.136;19.040;2024-03-23T10:45:08;7.80;;;5.00;;
84050;SDS011;74137;50.136;19.040;2024-03-23T10:47:37;9.10;;;5.00;;
84050;SDS011;74137;50.136;19.040;2024-03-23T10:50:05;9.80;;;4.90;;
84050;SDS011;74137;50.136;19.040;2024-03-23T10:52:34;6.70;;;4.40;;
84050;SDS011;74137;50.136;19.040;2024-03-23T10:55:03;7.90;;;4.70;;
84050;SDS011;74137;50.136;19.040;2024-03-23T10:57:40;9.80;;;5.60;;
84050;SDS011;74137;50.136;19.040;2024-03-23T11:00:36;9.90;;;5.40;;
84050;SDS011;74137;50.136;19.040;2024-03-23T11:06:05;8.40;;;4.70;;
84050;SDS011;74137;50.136;19.040;2024-03-23T11:08:39;9.00;;;4.30;;
84050;SDS011;74137;50.136;19.040;2024-03-23T11:11:18;6.70;;;4.30;;
84050;SDS011;74137;50.136;19.040;2024-03-23T11:13:47;6.80;;;3.80;;
84050;SDS011;74137;50.136;19.040;2024-03-23T11:16:21;6.70;;;4.30;;
84050;SDS011;74137;50.136;19.040;2024-03-23T11:18:54;7.70;;;4.30;;
84050;SDS011;74137;50.136;19.040;2024-03-23T11:24:22;8.70;;;5.40;;
84050;SDS011;74137;50.136;19.040;2024-03-23T11:26:53;10.40;;;5.10;;
84050;SDS011;74137;50.136;19.040;2024-03-23T11:29:21;10.30;;;4.70;;
84050;SDS011;74137;50.136;19.040;2024-03-23T11:31:50;8.90;;;4.50;;
84050;SDS011;74137;50.136;19.040;2024-03-23T11:34:31;7.20;;;3.70;;
84050;SDS011;74137;50.136;19.040;2024-03-23T11:37:04;7.20;;;4.20;;
84050;SDS011;74137;50.136;19.040;2024-03-23T11:39:36;6.20;;;3.80;;
84050;SDS011;74137;50.136;19.040;2024-03-23T11:42:05;6.30;;;3.50;;
84050;SDS011;74137;50.136;19.040;2024-03-23T11:44:55;7.70;;;3.70;;
84050;SDS011;74137;50.136;19.040;2024-03-23T11:47:49;6.90;;;4.00;;
84050;SDS011;74137;50.136;19.040;2024-03-23T11:50:53;7.20;;;3.50;;
84050;SDS011;74137;50.136;19.040;2024-03-23T11:53:24;6.90;;;3.70;;
84050;SDS011;74137;50.136;19.040;2024-03-23T11:56:21;9.10;;;3.80;;
84050;SDS011;74137;50.136;19.040;2024-03-23T11:59:35;7.10;;;3.20;;
84050;SDS011;74137;50.136;19.040;2024-03-23T12:02:07;4.90;;;3.00;;
84050;SDS011;74137;50.136;19.040;2024-03-23T12:04:40;5.60;;;2.90;;
84050;SDS011;74137;50.136;19.040;2024-03-23T12:09:43;4.70;;;2.30;;
84050;SDS011;74137;50.136;19.040;2024-03-23T12:12:17;5.50;;;2.60;;
84050;SDS011;74137;50.136;19.040;2024-03-23T12:15:01;3.60;;;2.30;;
84050;SDS011;74137;50.136;19.040;2024-03-23T12:17:34;4.10;;;2.00;;
84050;SDS011;74137;50.136;19.040;2024-03-23T12:20:05;4.50;;;2.50;;
84050;SDS011;74137;50.136;19.040;2024-03-23T12:22:33;5.50;;;1.80;;
84050;SDS011;74137;50.136;19.040;2024-03-23T12:25:03;4.80;;;2.10;;
84050;SDS011;74137;50.136;19.040;2024-03-23T12:27:31;3.60;;;2.00;;
84050;SDS011;74137;50.136;19.040;2024-03-23T12:30:02;5.00;;;1.90;;
84050;SDS011;74137;50.136;19.040;2024-03-23T12:32:32;4.00;;;1.90;;
84050;SDS011;74137;50.136;19.040;2024-03-23T12:35:00;2.80;;;1.60;;
84050;SDS011;74137;50.136;19.040;2024-03-23T12:37:28;2.90;;;1.40;;
84050;SDS011;74137;50.136;19.040;2024-03-23T12:39:57;3.70;;;1.80;;
84050;SDS011;74137;50.136;19.040;2024-03-23T12:42:25;3.70;;;1.90;;
84050;SDS011;74137;50.136;19.040;2024-03-23T12:44:57;3.40;;;1.40;;
84050;SDS011;74137;50.136;19.040;2024-03-23T12:47:26;3.50;;;1.60;;
84050;SDS011;74137;50.136;19.040;2024-03-23T12:49:58;3.40;;;1.60;;
84050;SDS011;74137;50.136;19.040;2024-03-23T12:52:26;4.00;;;1.90;;
84050;SDS011;74137;50.136;19.040;2024-03-23T12:54:56;2.60;;;1.40;;
84050;SDS011;74137;50.136;19.040;2024-03-23T12:57:24;2.30;;;1.50;;
84050;SDS011;74137;50.136;19.040;2024-03-23T13:02:21;6.00;;;1.90;;
84050;SDS011;74137;50.136;19.040;2024-03-23T13:04:50;3.70;;;1.80;;
84050;SDS011;74137;50.136;19.040;2024-03-23T13:07:18;4.00;;;1.80;;
84050;SDS011;74137;50.136;19.040;2024-03-23T13:09:50;3.60;;;1.80;;
84050;SDS011;74137;50.136;19.040;2024-03-23T13:12:19;3.50;;;2.00;;
84050;SDS011;74137;50.136;19.040;2024-03-23T13:14:48;3.80;;;1.90;;
84050;SDS011;74137;50.136;19.040;2024-03-23T13:17:16;3.90;;;2.10;;
84050;SDS011;74137;50.136;19.040;2024-03-23T13:19:44;3.60;;;1.80;;
84050;SDS011;74137;50.136;19.040;2024-03-23T13:22:12;2.40;;;1.50;;
84050;SDS011;74137;50.136;19.040;2024-03-23T13:24:40;2.80;;;1.40;;
84050;SDS011;74137;50.136;19.040;2024-03-23T13:27:09;2.90;;;1.30;;
84050;SDS011;74137;50.136;19.040;2024-03-23T13:29:38;3.10;;;1.50;;
84050;SDS011;74137;50.136;19.040;2024-03-23T13:32:07;3.20;;;1.70;;
84050;SDS011;74137;50.136;19.040;2024-03-23T13:34:35;5.50;;;2.00;;
84050;SDS011;74137;50.136;19.040;2024-03-23T13:37:03;3.70;;;1.80;;
84050;SDS011;74137;50.136;19.040;2024-03-23T13:39:32;4.00;;;1.90;;
84050;SDS011;74137;50.136;19.040;2024-03-23T13:42:01;4.30;;;2.30;;
84050;SDS011;74137;50.136;19.040;2024-03-23T13:44:29;4.50;;;1.90;;
84050;SDS011;74137;50.136;19.040;2024-03-23T13:46:57;7.30;;;1.80;;
84050;SDS011;74137;50.136;19.040;2024-03-23T13:49:29;4.90;;;2.70;;
84050;SDS011;74137;50.136;19.040;2024-03-23T13:52:00;6.20;;;2.00;;
84050;SDS011;74137;50.136;19.040;2024-03-23T13:54:28;6.80;;;2.70;;
84050;SDS011;74137;50.136;19.040;2024-03-23T13:56:56;5.30;;;1.20;;
84050;SDS011;74137;50.136;19.040;2024-03-23T13:59:24;2.60;;;0.90;;
84050;SDS011;74137;50.136;19.040;2024-03-23T14:01:52;2.70;;;0.80;;
84050;SDS011;74137;50.136;19.040;2024-03-23T14:04:22;3.90;;;1.30;;
84050;SDS011;74137;50.136;19.040;2024-03-23T14:06:52;2.90;;;1.00;;
84050;SDS011;74137;50.136;19.040;2024-03-23T14:09:20;5.10;;;0.80;;
84050;SDS011;74137;50.136;19.040;2024-03-23T14:11:51;2.10;;;0.90;;
84050;SDS011;74137;50.136;19.040;2024-03-23T14:14:19;4.50;;;1.30;;
84050;SDS011;74137;50.136;19.040;2024-03-23T14:16:49;3.40;;;0.90;;
84050;SDS011;74137;50.136;19.040;2024-03-23T14:19:18;3.50;;;1.10;;
84050;SDS011;74137;50.136;19.040;2024-03-23T14:24:15;5.00;;;2.00;;
84050;SDS011;74137;50.136;19.040;2024-03-23T14:26:43;5.00;;;2.20;;
84050;SDS011;74137;50.136;19.040;2024-03-23T14:29:11;2.40;;;1.30;;
84050;SDS011;74137;50.136;19.040;2024-03-23T14:31:40;4.30;;;1.80;;
84050;SDS011;74137;50.136;19.040;2024-03-23T14:34:08;5.50;;;2.30;;
84050;SDS011;74137;50.136;19.040;2024-03-23T14:36:37;4.80;;;1.50;;
84050;SDS011;74137;50.136;19.040;2024-03-23T14:39:06;4.40;;;1.90;;
84050;SDS011;74137;50.136;19.040;2024-03-23T14:41:34;4.00;;;1.50;;
84050;SDS011;74137;50.136;19.040;2024-03-23T14:44:03;4.80;;;2.00;;
84050;SDS011;74137;50.136;19.040;2024-03-23T14:46:32;5.00;;;1.50;;
84050;SDS011;74137;50.136;19.040;2024-03-23T14:49:01;2.90;;;1.40;;
84050;SDS011;74137;50.136;19.040;2024-03-23T14:51:30;7.20;;;2.20;;
84050;SDS011;74137;50.136;19.040;2024-03-23T14:54:00;4.50;;;1.40;;
84050;SDS011;74137;50.136;19.040;2024-03-23T14:56:29;1.90;;;1.40;;
84050;SDS011;74137;50.136;19.040;2024-03-23T14:58:57;5.10;;;1.80;;
84050;SDS011;74137;50.136;19.040;2024-03-23T15:01:26;5.40;;;2.20;;
84050;SDS011;74137;50.136;19.040;2024-03-23T15:03:55;4.40;;;1.70;;
84050;SDS011;74137;50.136;19.040;2024-03-23T15:06:23;4.40;;;2.10;;
84050;SDS011;74137;50.136;19.040;2024-03-23T15:08:52;7.50;;;3.00;;
84050;SDS011;74137;50.136;19.040;2024-03-23T15:11:20;7.20;;;3.20;;
84050;SDS011;74137;50.136;19.040;2024-03-23T15:13:49;6.30;;;2.40;;
84050;SDS011;74137;50.136;19.040;2024-03-23T15:16:18;5.50;;;2.60;;
84050;SDS011;74137;50.136;19.040;2024-03-23T15:18:51;6.90;;;3.30;;
84050;SDS011;74137;50.136;19.040;2024-03-23T15:21:22;6.40;;;2.80;;
84050;SDS011;74137;50.136;19.040;2024-03-23T15:23:50;5.20;;;2.80;;
84050;SDS011;74137;50.136;19.040;2024-03-23T15:26:18;7.80;;;3.20;;
84050;SDS011;74137;50.136;19.040;2024-03-23T15:28:50;7.10;;;3.40;;
84050;SDS011;74137;50.136;19.040;2024-03-23T15:31:24;6.30;;;2.70;;
84050;SDS011;74137;50.136;19.040;2024-03-23T15:33:52;6.50;;;3.00;;
84050;SDS011;74137;50.136;19.040;2024-03-23T15:36:20;4.80;;;2.70;;
84050;SDS011;74137;50.136;19.040;2024-03-23T15:38:48;5.50;;;2.20;;
84050;SDS011;74137;50.136;19.040;2024-03-23T15:41:17;7.50;;;2.70;;
84050;SDS011;74137;50.136;19.040;2024-03-23T15:43:44;5.50;;;2.50;;
84050;SDS011;74137;50.136;19.040;2024-03-23T15:46:12;6.60;;;3.20;;
84050;SDS011;74137;50.136;19.040;2024-03-23T15:48:42;6.40;;;3.10;;
84050;SDS011;74137;50.136;19.040;2024-03-23T15:51:14;6.20;;;2.80;;
84050;SDS011;74137;50.136;19.040;2024-03-23T15:53:42;6.30;;;3.10;;
84050;SDS011;74137;50.136;19.040;2024-03-23T15:56:11;6.40;;;2.70;;
84050;SDS011;74137;50.136;19.040;2024-03-23T15:58:41;6.20;;;2.60;;
84050;SDS011;74137;50.136;19.040;2024-03-23T16:01:09;10.00;;;3.30;;
84050;SDS011;74137;50.136;19.040;2024-03-23T16:03:38;6.10;;;2.90;;
84050;SDS011;74137;50.136;19.040;2024-03-23T16:06:07;6.00;;;2.80;;
84050;SDS011;74137;50.136;19.040;2024-03-23T16:08:35;5.90;;;2.50;;
84050;SDS011;74137;50.136;19.040;2024-03-23T16:11:05;8.00;;;2.90;;
84050;SDS011;74137;50.136;19.040;2024-03-23T16:13:34;6.90;;;2.50;;
84050;SDS011;74137;50.136;19.040;2024-03-23T16:16:05;11.20;;;4.00;;
84050;SDS011;74137;50.136;19.040;2024-03-23T16:18:35;10.00;;;4.50;;
84050;SDS011;74137;50.136;19.040;2024-03-23T16:23:33;6.70;;;3.90;;
84050;SDS011;74137;50.136;19.040;2024-03-23T16:26:02;6.60;;;4.10;;
84050;SDS011;74137;50.136;19.040;2024-03-23T16:28:32;8.40;;;4.70;;
84050;SDS011;74137;50.136;19.040;2024-03-23T16:33:32;6.90;;;3.20;;
84050;SDS011;74137;50.136;19.040;2024-03-23T16:36:07;6.60;;;3.10;;
84050;SDS011;74137;50.136;19.040;2024-03-23T16:38:37;5.70;;;2.70;;
84050;SDS011;74137;50.136;19.040;2024-03-23T16:41:08;6.00;;;3.00;;
84050;SDS011;74137;50.136;19.040;2024-03-23T16:43:41;6.90;;;3.10;;
84050;SDS011;74137;50.136;19.040;2024-03-23T16:46:10;6.80;;;3.80;;
84050;SDS011;74137;50.136;19.040;2024-03-23T16:48:39;6.60;;;2.70;;
84050;SDS011;74137;50.136;19.040;2024-03-23T16:51:08;4.60;;;2.60;;
84050;SDS011;74137;50.136;19.040;2024-03-23T16:53:38;5.90;;;3.00;;
84050;SDS011;74137;50.136;19.040;2024-03-23T16:56:09;8.00;;;4.00;;
84050;SDS011;74137;50.136;19.040;2024-03-23T16:58:38;6.70;;;2.60;;
84050;SDS011;74137;50.136;19.040;2024-03-23T17:01:10;6.20;;;3.80;;
84050;SDS011;74137;50.136;19.040;2024-03-23T17:03:50;7.10;;;3.20;;
84050;SDS011;74137;50.136;19.040;2024-03-23T17:08:48;3.60;;;1.70;;
84050;SDS011;74137;50.136;19.040;2024-03-23T17:11:16;4.10;;;1.60;;
84050;SDS011;74137;50.136;19.040;2024-03-23T17:13:51;2.50;;;1.10;;
84050;SDS011;74137;50.136;19.040;2024-03-23T17:16:24;2.30;;;1.40;;
84050;SDS011;74137;50.136;19.040;2024-03-23T17:18:53;3.10;;;1.80;;
84050;SDS011;74137;50.136;19.040;2024-03-23T17:21:22;3.60;;;1.50;;
84050;SDS011;74137;50.136;19.040;2024-03-23T17:23:50;3.90;;;1.60;;
84050;SDS011;74137;50.136;19.040;2024-03-23T17:26:19;3.30;;;1.50;;
84050;SDS011;74137;50.136;19.040;2024-03-23T17:28:50;3.50;;;1.70;;
84050;SDS011;74137;50.136;19.040;2024-03-23T17:31:18;4.90;;;1.80;;
84050;SDS011;74137;50.136;19.040;2024-03-23T17:33:50;3.30;;;1.80;;
84050;SDS011;74137;50.136;19.040;2024-03-23T17:36:23;2.40;;;1.60;;
84050;SDS011;74137;50.136;19.040;2024-03-23T17:38:54;3.20;;;1.70;;
84050;SDS011;74137;50.136;19.040;2024-03-23T17:41:23;4.50;;;2.20;;
84050;SDS011;74137;50.136;19.040;2024-03-23T17:43:55;3.90;;;2.40;;
84050;SDS011;74137;50.136;19.040;2024-03-23T17:46:23;4.10;;;2.10;;
84050;SDS011;74137;50.136;19.040;2024-03-23T17:48:51;5.10;;;2.20;;
84050;SDS011;74137;50.136;19.040;2024-03-23T17:51:20;5.30;;;2.20;;
84050;SDS011;74137;50.136;19.040;2024-03-23T17:53:48;5.10;;;2.50;;
84050;SDS011;74137;50.136;19.040;2024-03-23T17:56:16;6.70;;;3.70;;
84050;SDS011;74137;50.136;19.040;2024-03-23T18:07:16;6.60;;;3.30;;
84050;SDS011;74137;50.136;19.040;2024-03-23T18:49:54;6.60;;;3.40;;
84050;SDS011;74137;50.136;19.040;2024-03-23T18:52:26;4.50;;;2.80;;
84050;SDS011;74137;50.136;19.040;2024-03-23T18:54:54;5.30;;;3.20;;
84050;SDS011;74137;50.136;19.040;2024-03-23T20:35:51;5.00;;;2.70;;
84050;SDS011;74137;50.136;19.040;2024-03-23T20:38:20;6.40;;;3.50;;
84050;SDS011;74137;50.136;19.040;2024-03-23T20:40:52;5.20;;;2.90;;
84050;SDS011;74137;50.136;19.040;2024-03-23T20:43:21;6.90;;;3.30;;
84050;SDS011;74137;50.136;19.040;2024-03-23T20:45:56;6.70;;;3.70;;
84050;SDS011;74137;50.136;19.040;2024-03-23T20:48:25;8.10;;;4.10;;
84050;SDS011;74137;50.136;19.040;2024-03-23T20:53:26;5.60;;;2.90;;
84050;SDS011;74137;50.136;19.040;2024-03-23T20:55:56;5.30;;;2.80;;
84050;SDS011;74137;50.136;19.040;2024-03-23T20:58:27;5.50;;;2.50;;